Balluta Bay — 9HVQ8 — position and weather

sailwx.info

Track history (hours):
 
Tides and Currents Weather Stations Pressure Air Temp Water Temp Dewpoint Dewpoint Depression Visibility Wind Speed Wind Dir Waves Ship Positions

Balluta Bay

Last reported at 2018-May-26 03:48 UTC. Time now 2018-Jun-22 19:00 UTC.
Position N 35°49' E 014°34'.
Warning: this ship's position is 27 days out of date.

Length 79 m; draft 5.4 m.

Type: Tanker. MMSI: 256489000.

Date/timePositionNaut miles runAvg speedWind from/ knotsBaromVisibWave heightAir tempDewpointWater temp
2018-May-26 03:48N 35°49' E 014°34'1 2.3
2018-May-26 03:29N 35°49' E 014°35'0 0.2
2018-May-26 02:54N 35°49' E 014°35'0 1.0
2018-May-26 02:29N 35°49' E 014°35'0 0.1
2018-May-26 01:58N 35°49' E 014°35'0 0.0
2018-May-26 01:28N 35°49' E 014°35'0 0.0
2018-May-26 00:58N 35°49' E 014°35'0 0.0
2018-May-26 00:28N 35°49' E 014°35'0 0.0
2018-May-25 23:58N 35°49' E 014°35'0 0.1
2018-May-25 23:28N 35°49' E 014°35'0 0.0
2018-May-25 19:46N 35°49' E 014°35'0 0.2
2018-May-25 19:23N 35°49' E 014°35'2 5.2
2018-May-25 19:00N 35°50' E 014°38'3 6.2
2018-May-25 18:30N 35°50' E 014°41'3 6.2
2018-May-25 17:59N 35°52' E 014°45'2 0.2
2018-May-25 08:39N 35°53' E 014°47'1 6.4
2018-May-25 08:30N 35°53' E 014°48'1 0.3
2018-May-25 06:29N 35°54' E 014°48'0 0.0
2018-May-25 05:59N 35°54' E 014°48'0 0.0
2018-May-25 05:28N 35°54' E 014°48'0 0.0
2018-May-25 04:59N 35°54' E 014°48'0 0.0
2018-May-25 04:31N 35°54' E 014°48'0 0.0
2018-May-25 02:54N 35°54' E 014°48'0 0.0
2018-May-25 02:30N 35°54' E 014°48'0 0.0
2018-May-25 02:00N 35°54' E 014°48'0 0.0
2018-May-25 01:30N 35°54' E 014°48'2 3.4
2018-May-25 01:00N 35°53' E 014°46'0 0.0
2018-May-24 20:53N 35°53' E 014°46'1 3.7
2018-May-24 20:30N 35°52' E 014°45'4 7.8
2018-May-24 20:00N 35°50' E 014°41'4 0.1
2018-May-23 17:29N 35°49' E 014°36'6 6.7
2018-May-23 16:36N 35°54' E 014°32'  
2018-May-16 18:56N 35°50' E 014°32'2 4.5
2018-May-16 18:30N 35°49' E 014°35'1 0.7
2018-May-16 17:34N 35°49' E 014°35'0 0.0
2018-May-16 17:28N 35°49' E 014°35'5 2.5
2018-May-16 15:20N 35°50' E 014°42'2 0.3
2018-May-16 08:46N 35°50' E 014°40'  
Track history (hours):
 
Tides and Currents Weather Stations Pressure Air Temp Water Temp Dewpoint Dewpoint Depression Visibility Wind Speed Wind Dir Waves Ship Positions

Balluta Bay

Last reported at 2018-May-26 03:48 UTC. Time now 2018-Jun-22 19:00 UTC.
Position N 35°49' E 014°34'.
Warning: this ship's position is 27 days out of date.

Length 79 m; draft 5.4 m.

Type: Tanker. MMSI: 256489000.

Date/timePositionNaut miles runAvg speedWind from/ knotsBaromVisibWave heightAir tempDewpointWater temp
2018-May-26 03:48N 35°49' E 014°34'1 2.3
2018-May-26 03:29N 35°49' E 014°35'0 0.2
2018-May-26 02:54N 35°49' E 014°35'0 1.0
2018-May-26 02:29N 35°49' E 014°35'0 0.1
2018-May-26 01:58N 35°49' E 014°35'0 0.0
2018-May-26 01:28N 35°49' E 014°35'0 0.0
2018-May-26 00:58N 35°49' E 014°35'0 0.0
2018-May-26 00:28N 35°49' E 014°35'0 0.0
2018-May-25 23:58N 35°49' E 014°35'0 0.1
2018-May-25 23:28N 35°49' E 014°35'0 0.0
2018-May-25 19:46N 35°49' E 014°35'0 0.2
2018-May-25 19:23N 35°49' E 014°35'2 5.2
2018-May-25 19:00N 35°50' E 014°38'3 6.2
2018-May-25 18:30N 35°50' E 014°41'3 6.2
2018-May-25 17:59N 35°52' E 014°45'2 0.2
2018-May-25 08:39N 35°53' E 014°47'1 6.4
2018-May-25 08:30N 35°53' E 014°48'1 0.3
2018-May-25 06:29N 35°54' E 014°48'0 0.0
2018-May-25 05:59N 35°54' E 014°48'0 0.0
2018-May-25 05:28N 35°54' E 014°48'0 0.0
2018-May-25 04:59N 35°54' E 014°48'0 0.0
2018-May-25 04:31N 35°54' E 014°48'0 0.0
2018-May-25 02:54N 35°54' E 014°48'0 0.0
2018-May-25 02:30N 35°54' E 014°48'0 0.0
2018-May-25 02:00N 35°54' E 014°48'0 0.0
2018-May-25 01:30N 35°54' E 014°48'2 3.4
2018-May-25 01:00N 35°53' E 014°46'0 0.0
2018-May-24 20:53N 35°53' E 014°46'1 3.7
2018-May-24 20:30N 35°52' E 014°45'4 7.8
2018-May-24 20:00N 35°50' E 014°41'4 0.1
2018-May-23 17:29N 35°49' E 014°36'6 6.7
2018-May-23 16:36N 35°54' E 014°32'  
2018-May-16 18:56N 35°50' E 014°32'2 4.5
2018-May-16 18:30N 35°49' E 014°35'1 0.7
2018-May-16 17:34N 35°49' E 014°35'0 0.0
2018-May-16 17:28N 35°49' E 014°35'5 2.5
2018-May-16 15:20N 35°50' E 014°42'2 0.3
2018-May-16 08:46N 35°50' E 014°40'  

Dump ship's entire track history